createdAt,value
2022-12-25T00:01:34.683Z,86.95
2022-12-25T00:04:03.831Z,86.89
2022-12-25T00:06:31.722Z,86.92
2022-12-25T00:08:59.488Z,86.94
2022-12-25T00:11:27.349Z,86.95
2022-12-25T00:13:55.117Z,86.87
2022-12-25T00:16:25.095Z,86.85
2022-12-25T00:18:53.704Z,86.73
2022-12-25T00:21:23.315Z,86.83
2022-12-25T00:23:55.395Z,86.86
2022-12-25T00:26:23.834Z,86.97
2022-12-25T00:28:54.108Z,87.22
2022-12-25T00:31:22.558Z,87.22
2022-12-25T00:33:51.924Z,87.16
2022-12-25T00:36:23.023Z,87.38
2022-12-25T00:38:50.841Z,87.60
2022-12-25T00:41:41.906Z,87.53
2022-12-25T00:44:14.163Z,87.78
2022-12-25T00:46:42.386Z,87.98
2022-12-25T00:49:10.543Z,88.04
2022-12-25T00:51:39.753Z,88.29
2022-12-25T00:54:07.809Z,88.26
2022-12-25T00:56:36.372Z,88.20
2022-12-25T00:59:04.778Z,88.32
2022-12-25T01:01:33.508Z,88.26
2022-12-25T01:04:01.853Z,88.33
2022-12-25T01:06:29.966Z,88.20
2022-12-25T01:09:16.820Z,88.46
2022-12-25T01:11:44.860Z,88.24
2022-12-25T01:14:12.988Z,88.24
2022-12-25T01:16:40.931Z,88.16
2022-12-25T01:19:08.690Z,88.14
2022-12-25T01:21:36.644Z,88.08
2022-12-25T01:24:06.853Z,88.28
2022-12-25T01:26:34.686Z,87.95
2022-12-25T01:29:02.484Z,87.75
2022-12-25T01:31:30.315Z,87.95
2022-12-25T01:33:58.163Z,87.92
2022-12-25T01:36:27.554Z,87.93
2022-12-25T01:38:55.470Z,88.32
2022-12-25T01:41:25.743Z,87.99
2022-12-25T01:44:03.289Z,87.92
2022-12-25T01:46:32.152Z,88.11
2022-12-25T01:49:03.340Z,88.17
2022-12-25T01:51:35.463Z,87.89
2022-12-25T01:54:06.384Z,88.16
2022-12-25T01:56:38.007Z,87.98
2022-12-25T01:59:08.273Z,87.83
2022-12-25T02:01:36.283Z,87.81
2022-12-25T02:04:09.943Z,87.59
2022-12-25T02:06:37.680Z,88.27
2022-12-25T02:09:05.523Z,87.58
2022-12-25T02:11:52.819Z,87.99
2022-12-25T02:14:20.584Z,87.42
2022-12-25T02:16:56.706Z,87.27
2022-12-25T02:19:38.292Z,87.21
2022-12-25T02:22:17.112Z,87.76
2022-12-25T02:24:58.461Z,87.67
2022-12-25T02:27:52.617Z,89.01
2022-12-25T02:30:20.678Z,87.60
2022-12-25T02:33:16.679Z,87.96
2022-12-25T02:35:46.108Z,87.24
2022-12-25T02:38:20.528Z,86.94
2022-12-25T02:40:52.134Z,87.06
2022-12-25T02:43:43.654Z,86.90
2022-12-25T02:46:31.891Z,87.32
2022-12-25T02:49:20.938Z,87.60
2022-12-25T02:52:11.454Z,86.77
2022-12-25T02:55:02.750Z,88.89
2022-12-25T02:57:51.336Z,88.62
2022-12-25T03:00:38.467Z,87.06
2022-12-25T03:03:27.981Z,87.27
2022-12-25T03:06:16.242Z,87.30
2022-12-25T03:08:47.053Z,86.60
2022-12-25T03:11:32.442Z,87.42
2022-12-25T03:14:16.672Z,86.93
2022-12-25T03:16:53.842Z,86.75
2022-12-25T03:19:42.190Z,86.56
2022-12-25T03:22:31.671Z,86.06
2022-12-25T03:25:17.217Z,86.43
2022-12-25T03:27:47.484Z,86.31
2022-12-25T03:30:32.964Z,85.99
2022-12-25T03:33:36.688Z,85.81
2022-12-25T03:36:06.182Z,85.79
2022-12-25T03:39:01.802Z,85.88
2022-12-25T03:41:53.791Z,85.55
2022-12-25T03:44:42.929Z,85.64
2022-12-25T03:47:40.949Z,85.43
2022-12-25T03:50:33.459Z,86.01
2022-12-25T03:53:22.378Z,85.56
2022-12-25T03:56:09.635Z,85.75
2022-12-25T03:58:54.710Z,86.19
2022-12-25T04:01:40.343Z,85.79
2022-12-25T04:04:25.609Z,85.60
2022-12-25T04:07:12.226Z,85.20
2022-12-25T04:09:57.737Z,85.62
2022-12-25T04:12:42.937Z,85.40
2022-12-25T04:15:29.437Z,85.73
2022-12-25T04:18:14.692Z,85.49
2022-12-25T04:20:59.935Z,85.23
2022-12-25T04:23:46.707Z,85.46
2022-12-25T04:26:31.909Z,85.20
2022-12-25T04:29:17.178Z,85.83
2022-12-25T04:32:02.624Z,85.96
2022-12-25T04:34:47.796Z,86.13
2022-12-25T04:37:15.593Z,86.73
2022-12-25T04:39:44.693Z,86.56
2022-12-25T04:42:12.658Z,85.71
2022-12-25T04:44:40.419Z,85.94
2022-12-25T04:47:11.544Z,85.92
2022-12-25T04:49:39.752Z,86.68
2022-12-25T04:52:07.568Z,87.32
2022-12-25T04:54:35.389Z,86.05
2022-12-25T04:57:04.901Z,86.35
2022-12-25T04:59:32.646Z,86.25
2022-12-25T05:02:00.529Z,86.38
2022-12-25T05:04:28.375Z,87.12
2022-12-25T05:06:56.127Z,86.14
2022-12-25T05:09:23.854Z,86.46
2022-12-25T05:11:51.611Z,86.81
2022-12-25T05:14:20.735Z,87.04
2022-12-25T05:16:48.677Z,87.48
2022-12-25T05:19:16.455Z,87.02
2022-12-25T05:21:44.217Z,86.88
2022-12-25T05:24:11.930Z,87.00
2022-12-25T05:26:39.641Z,86.80
2022-12-25T05:29:07.449Z,87.09
2022-12-25T05:31:36.627Z,87.13
2022-12-25T05:34:04.410Z,87.91
2022-12-25T05:36:32.183Z,87.69
2022-12-25T05:38:59.921Z,87.34
2022-12-25T05:41:33.802Z,87.57
2022-12-25T05:44:02.112Z,87.74
2022-12-25T05:46:29.939Z,87.56
2022-12-25T05:48:59.060Z,87.19
2022-12-25T05:51:27.017Z,87.26
2022-12-25T05:53:54.749Z,87.32
2022-12-25T05:56:22.511Z,87.73
2022-12-25T05:58:50.251Z,87.98
2022-12-25T06:01:21.485Z,87.88
2022-12-25T06:03:49.364Z,87.09
2022-12-25T06:06:19.028Z,87.46
2022-12-25T06:08:46.901Z,87.49
2022-12-25T06:11:15.950Z,86.59
2022-12-25T06:13:44.210Z,86.22
2022-12-25T06:16:13.370Z,86.73
2022-12-25T06:18:43.157Z,86.75
2022-12-25T06:21:12.171Z,86.40
2022-12-25T06:23:42.500Z,86.92
2022-12-25T06:26:12.004Z,87.13
2022-12-25T06:28:39.995Z,86.45
2022-12-25T06:31:08.813Z,86.36
2022-12-25T06:33:37.282Z,86.93
2022-12-25T06:36:08.935Z,86.60
2022-12-25T06:38:36.949Z,87.48
2022-12-25T06:41:07.303Z,85.97
2022-12-25T06:43:35.433Z,86.01
2022-12-25T06:46:04.952Z,86.93
2022-12-25T06:48:33.595Z,86.48
2022-12-25T06:51:01.423Z,85.94
2022-12-25T06:53:35.332Z,85.83
2022-12-25T06:56:15.255Z,85.59
2022-12-25T06:58:44.341Z,86.26
2022-12-25T07:01:18.202Z,85.99
2022-12-25T07:03:47.131Z,85.64
2022-12-25T07:06:15.075Z,87.13
2022-12-25T07:08:42.864Z,86.67
2022-12-25T07:11:12.261Z,87.52
2022-12-25T07:13:39.777Z,86.65
2022-12-25T07:16:07.754Z,86.48
2022-12-25T07:18:35.671Z,88.38
2022-12-25T07:21:07.097Z,86.68
2022-12-25T07:23:34.949Z,86.85
2022-12-25T07:26:02.894Z,86.60
2022-12-25T07:28:32.294Z,86.36
2022-12-25T07:31:03.870Z,86.53
2022-12-25T07:33:31.822Z,86.46
2022-12-25T07:35:59.496Z,85.91
2022-12-25T07:38:27.068Z,86.51
2022-12-25T07:40:54.748Z,87.05
2022-12-25T07:43:22.429Z,87.23
2022-12-25T07:45:54.752Z,87.21
2022-12-25T07:48:22.347Z,87.21
2022-12-25T07:50:49.956Z,87.45
2022-12-25T07:53:17.535Z,88.24
2022-12-25T07:55:45.195Z,86.47
2022-12-25T07:58:13.754Z,86.33
2022-12-25T08:00:43.708Z,86.14
2022-12-25T08:03:14.814Z,86.40
2022-12-25T08:05:42.529Z,86.61
2022-12-25T08:08:10.133Z,87.22
2022-12-25T08:10:37.778Z,87.54
2022-12-25T08:13:10.809Z,87.89
2022-12-25T08:15:41.967Z,87.58
2022-12-25T08:18:09.682Z,88.41
2022-12-25T08:20:38.655Z,87.83
2022-12-25T08:23:06.596Z,88.81
2022-12-25T08:25:34.247Z,88.27
2022-12-25T08:28:02.232Z,88.87
2022-12-25T08:30:29.920Z,89.92
2022-12-25T08:32:57.659Z,90.32
2022-12-25T08:35:26.162Z,89.14
2022-12-25T08:37:55.163Z,89.07
2022-12-25T08:40:22.772Z,89.12
2022-12-25T08:42:50.381Z,88.71
2022-12-25T08:45:18.001Z,88.47
2022-12-25T08:47:45.587Z,89.45
2022-12-25T08:50:13.164Z,88.46
2022-12-25T08:52:40.976Z,88.78
2022-12-25T08:55:10.163Z,89.25
2022-12-25T08:57:37.761Z,88.90
2022-12-25T09:00:05.673Z,87.55
2022-12-25T09:02:33.597Z,87.57
2022-12-25T09:05:01.342Z,88.27
2022-12-25T09:07:29.021Z,88.49
2022-12-25T09:09:56.604Z,88.80
2022-12-25T09:12:25.569Z,89.17
2022-12-25T09:14:53.127Z,88.12
2022-12-25T09:17:20.755Z,87.51
2022-12-25T09:19:48.399Z,88.51
2022-12-25T09:22:16.005Z,88.40
2022-12-25T09:24:43.750Z,88.20
2022-12-25T09:27:11.410Z,88.71
2022-12-25T09:29:40.525Z,87.67
2022-12-25T09:32:08.465Z,87.95
2022-12-25T09:34:36.282Z,88.29
2022-12-25T09:37:03.849Z,86.69
2022-12-25T09:39:31.484Z,88.00
2022-12-25T09:42:00.922Z,88.69
2022-12-25T09:44:30.096Z,87.70
2022-12-25T09:47:00.336Z,89.30
2022-12-25T09:49:33.601Z,88.95
2022-12-25T09:52:04.159Z,88.73
2022-12-25T09:54:37.808Z,89.10
2022-12-25T09:57:06.075Z,89.40
2022-12-25T09:59:33.702Z,89.91
2022-12-25T10:02:21.333Z,91.13
2022-12-25T10:04:56.364Z,90.86
2022-12-25T10:07:27.076Z,91.21
2022-12-25T10:09:59.838Z,91.07
2022-12-25T10:12:33.099Z,92.23
2022-12-25T10:15:31.131Z,92.09
2022-12-25T10:18:08.585Z,91.87
2022-12-25T10:20:41.156Z,91.96
2022-12-25T10:23:13.864Z,92.10
2022-12-25T10:25:42.826Z,92.18
2022-12-25T10:28:14.136Z,92.15
2022-12-25T10:30:43.862Z,92.05
2022-12-25T10:33:17.189Z,93.20
2022-12-25T10:35:45.760Z,93.84
2022-12-25T10:38:14.689Z,94.23
2022-12-25T10:40:47.997Z,94.25
2022-12-25T10:43:18.813Z,94.76
2022-12-25T10:45:47.120Z,95.39
2022-12-25T10:48:19.102Z,95.36
2022-12-25T10:50:46.828Z,94.51
2022-12-25T10:53:18.847Z,93.88
2022-12-25T10:55:54.752Z,94.32
2022-12-25T10:58:22.376Z,94.46
2022-12-25T11:00:53.478Z,94.01
2022-12-25T11:03:24.791Z,93.82
2022-12-25T11:05:52.702Z,93.62
2022-12-25T11:08:21.992Z,93.46
2022-12-25T11:10:53.439Z,93.35
2022-12-25T11:13:24.367Z,93.36
2022-12-25T11:16:01.683Z,93.75
2022-12-25T11:18:33.993Z,93.81
2022-12-25T11:21:02.919Z,94.38
2022-12-25T11:23:31.634Z,94.55
2022-12-25T11:26:00.198Z,94.32
2022-12-25T11:28:28.261Z,94.60
2022-12-25T11:30:57.655Z,94.10
2022-12-25T11:33:28.222Z,93.64
2022-12-25T11:35:59.025Z,95.39
2022-12-25T11:38:28.312Z,95.80
2022-12-25T11:40:58.653Z,96.07
2022-12-25T11:43:28.985Z,96.19
2022-12-25T11:45:57.808Z,95.91
2022-12-25T11:48:27.199Z,95.41
2022-12-25T11:50:56.131Z,95.55
2022-12-25T11:53:28.073Z,95.09
2022-12-25T11:55:58.223Z,94.88
2022-12-25T11:58:28.339Z,94.80
2022-12-25T12:00:57.382Z,94.63
2022-12-25T12:03:27.230Z,94.52
2022-12-25T12:05:56.435Z,94.38
2022-12-25T12:08:25.393Z,94.51
2022-12-25T12:11:15.588Z,94.38
2022-12-25T12:13:51.668Z,94.50
2022-12-25T12:16:19.353Z,94.18
2022-12-25T12:18:50.542Z,94.19
2022-12-25T12:21:22.092Z,94.18
2022-12-25T12:23:54.302Z,94.01
2022-12-25T12:26:23.110Z,93.81
2022-12-25T12:28:51.527Z,93.52
2022-12-25T12:31:19.234Z,93.30
2022-12-25T12:33:50.870Z,93.39
2022-12-25T12:36:25.120Z,93.74
2022-12-25T12:39:05.020Z,93.28
2022-12-25T12:41:41.761Z,93.40
2022-12-25T12:44:12.720Z,93.26
2022-12-25T12:46:51.120Z,93.16
2022-12-25T12:49:21.630Z,92.85
2022-12-25T12:51:49.510Z,92.50
2022-12-25T12:54:21.498Z,92.44
2022-12-25T12:56:59.803Z,92.43
2022-12-25T12:59:28.626Z,91.83
2022-12-25T13:02:01.730Z,91.43
2022-12-25T13:04:44.422Z,90.74
2022-12-25T13:07:14.257Z,90.07
2022-12-25T13:09:50.737Z,89.55
2022-12-25T13:12:18.516Z,89.31
2022-12-25T13:14:46.787Z,89.18
2022-12-25T13:17:16.057Z,88.90
2022-12-25T13:19:44.021Z,89.10
2022-12-25T13:22:24.300Z,89.18
2022-12-25T13:25:00.592Z,88.84
2022-12-25T13:27:29.195Z,88.33
2022-12-25T13:29:57.251Z,88.16
2022-12-25T13:32:26.039Z,88.12
2022-12-25T13:34:54.303Z,87.95
2022-12-25T13:37:22.861Z,87.91
2022-12-25T13:39:52.550Z,87.64
2022-12-25T13:42:22.478Z,87.56
2022-12-25T13:44:51.348Z,87.28
2022-12-25T13:47:20.812Z,87.62
2022-12-25T13:49:48.881Z,87.41
2022-12-25T13:52:17.271Z,86.79
2022-12-25T13:54:58.826Z,87.09
2022-12-25T13:57:30.078Z,86.98
2022-12-25T13:59:58.416Z,86.97
2022-12-25T14:02:29.065Z,87.58
2022-12-25T14:04:56.904Z,87.78
2022-12-25T14:07:25.046Z,87.66
2022-12-25T14:09:54.756Z,87.29
2022-12-25T14:12:22.903Z,87.20
2022-12-25T14:14:53.077Z,87.13
2022-12-25T14:17:20.957Z,86.90
2022-12-25T14:19:58.783Z,87.07
2022-12-25T14:22:32.125Z,86.67
2022-12-25T14:24:59.758Z,86.57
2022-12-25T14:27:30.246Z,86.26
2022-12-25T14:30:00.166Z,86.41
2022-12-25T14:32:30.971Z,86.53
2022-12-25T14:34:59.778Z,86.21
2022-12-25T14:37:29.189Z,86.01
2022-12-25T14:39:58.393Z,85.71
2022-12-25T14:42:26.873Z,85.59
2022-12-25T14:45:00.193Z,85.72
2022-12-25T14:47:27.974Z,85.15
2022-12-25T14:49:55.663Z,85.73
2022-12-25T14:52:25.093Z,86.20
2022-12-25T14:54:54.672Z,86.25
2022-12-25T14:57:26.987Z,86.56
2022-12-25T15:00:00.369Z,86.48
2022-12-25T15:02:28.401Z,86.03
2022-12-25T15:04:56.057Z,86.32
2022-12-25T15:07:26.136Z,86.31
2022-12-25T15:10:18.592Z,86.41
2022-12-25T15:12:41.313Z,86.03
2022-12-25T15:15:10.944Z,86.08
2022-12-25T15:17:38.577Z,85.34
2022-12-25T15:20:08.862Z,85.23
2022-12-25T15:23:10.328Z,85.52
2022-12-25T15:25:24.136Z,85.46
2022-12-25T15:27:51.774Z,85.36
2022-12-25T15:30:20.786Z,85.35
2022-12-25T15:32:48.351Z,84.94
2022-12-25T15:35:17.273Z,84.70
2022-12-25T15:37:44.909Z,84.34
2022-12-25T15:40:13.260Z,84.46
2022-12-25T15:42:41.528Z,84.53
2022-12-25T15:45:17.201Z,84.41
2022-12-25T15:47:46.131Z,84.02
2022-12-25T15:50:13.711Z,83.42
2022-12-25T15:52:41.285Z,83.33
2022-12-25T15:55:09.456Z,82.97
2022-12-25T15:57:37.691Z,82.90
2022-12-25T16:00:05.892Z,82.69
2022-12-25T16:02:39.545Z,82.49
2022-12-25T16:05:10.646Z,82.59
2022-12-25T16:07:38.500Z,82.29
2022-12-25T16:10:07.007Z,82.07
2022-12-25T16:12:34.592Z,82.14
2022-12-25T16:15:02.148Z,82.22
2022-12-25T16:17:29.784Z,82.12
2022-12-25T16:19:57.418Z,81.60
2022-12-25T16:22:26.572Z,81.76
2022-12-25T16:24:54.175Z,81.83
2022-12-25T16:27:22.053Z,81.98
2022-12-25T16:29:49.743Z,81.97
2022-12-25T16:32:17.729Z,82.22
2022-12-25T16:34:45.348Z,82.40
2022-12-25T16:37:12.950Z,81.81
2022-12-25T16:39:41.897Z,81.84
2022-12-25T16:42:09.573Z,81.65
2022-12-25T16:44:37.822Z,82.08
2022-12-25T16:47:05.510Z,82.17
2022-12-25T16:49:33.294Z,82.49
2022-12-25T16:52:00.909Z,82.64
2022-12-25T16:54:28.643Z,82.65
2022-12-25T16:56:57.573Z,82.91
2022-12-25T16:59:25.217Z,82.67
2022-12-25T17:01:52.849Z,82.83
2022-12-25T17:04:20.500Z,83.20
2022-12-25T17:06:49.137Z,82.92
2022-12-25T17:09:16.720Z,82.69
2022-12-25T17:11:44.357Z,82.81
2022-12-25T17:14:13.307Z,82.74
2022-12-25T17:16:41.004Z,83.20
2022-12-25T17:19:15.363Z,82.97
2022-12-25T17:21:42.934Z,82.79
2022-12-25T17:24:10.536Z,82.82
2022-12-25T17:26:38.198Z,82.88
2022-12-25T17:29:05.787Z,82.31
2022-12-25T17:31:35.285Z,82.54
2022-12-25T17:34:02.985Z,82.28
2022-12-25T17:36:30.636Z,82.40
2022-12-25T17:38:59.619Z,82.52
2022-12-25T17:41:27.417Z,82.91
2022-12-25T17:43:55.343Z,82.95
2022-12-25T17:46:24.135Z,82.66
2022-12-25T17:48:53.520Z,82.67
2022-12-25T17:51:22.898Z,82.64
2022-12-25T17:53:51.969Z,82.89
2022-12-25T17:56:20.005Z,82.91
2022-12-25T17:58:50.577Z,82.88
2022-12-25T18:01:18.419Z,82.94
2022-12-25T18:03:46.429Z,83.00
2022-12-25T18:06:16.792Z,83.05
2022-12-25T18:08:45.816Z,83.38
2022-12-25T18:11:15.230Z,83.12
2022-12-25T18:13:44.710Z,83.14
2022-12-25T18:16:13.399Z,83.19
2022-12-25T18:18:44.140Z,83.41
2022-12-25T18:21:18.649Z,83.47
2022-12-25T18:23:46.677Z,83.51
2022-12-25T18:26:14.440Z,83.74
2022-12-25T18:28:43.760Z,83.75
2022-12-25T18:31:11.804Z,83.64
2022-12-25T18:33:39.452Z,83.34
2022-12-25T18:36:07.422Z,83.69
2022-12-25T18:38:36.574Z,83.70
2022-12-25T18:41:04.989Z,83.52
2022-12-25T18:43:52.947Z,83.54
2022-12-25T18:46:24.027Z,83.56
2022-12-25T18:48:52.260Z,83.59
2022-12-25T18:51:20.138Z,83.80
2022-12-25T18:53:49.107Z,84.02
2022-12-25T18:56:18.384Z,83.83
2022-12-25T18:58:47.929Z,83.91
2022-12-25T19:01:17.620Z,83.91
2022-12-25T19:03:45.869Z,84.26
2022-12-25T19:06:17.419Z,84.59
2022-12-25T19:08:45.073Z,84.99
2022-12-25T19:11:15.351Z,84.59
2022-12-25T19:13:42.985Z,84.59
2022-12-25T19:16:10.701Z,84.40
2022-12-25T19:18:38.587Z,84.26
2022-12-25T19:21:07.529Z,84.52
2022-12-25T19:23:35.559Z,83.89
2022-12-25T19:26:04.361Z,84.01
2022-12-25T19:28:33.307Z,83.99
2022-12-25T19:31:01.123Z,84.12
2022-12-25T19:33:29.136Z,83.96
2022-12-25T19:35:59.860Z,84.31
2022-12-25T19:38:27.500Z,84.39
2022-12-25T19:41:01.163Z,84.71
2022-12-25T19:43:29.453Z,84.75
2022-12-25T19:45:58.504Z,84.84
2022-12-25T19:48:26.190Z,85.00
2022-12-25T19:50:54.029Z,85.57
2022-12-25T19:53:23.614Z,86.03
2022-12-25T19:55:52.304Z,86.41
2022-12-25T19:58:20.548Z,86.00
2022-12-25T20:00:58.636Z,86.56
2022-12-25T20:03:26.278Z,86.85
2022-12-25T20:05:54.170Z,86.65
2022-12-25T20:08:21.769Z,86.75
2022-12-25T20:10:49.603Z,87.00
2022-12-25T20:13:17.739Z,87.87
2022-12-25T20:15:45.547Z,87.00
2022-12-25T20:18:14.654Z,86.97
2022-12-25T20:20:42.866Z,86.88
2022-12-25T20:23:10.661Z,86.87
2022-12-25T20:25:39.876Z,86.43
2022-12-25T20:28:07.463Z,85.85
2022-12-25T20:30:35.125Z,85.79
2022-12-25T20:33:02.751Z,85.55
2022-12-25T20:35:31.741Z,85.12
2022-12-25T20:37:59.348Z,85.04
2022-12-25T20:40:26.953Z,84.62
2022-12-25T20:42:54.568Z,84.30
2022-12-25T20:45:22.996Z,83.90
2022-12-25T20:47:50.612Z,83.61
2022-12-25T20:50:18.292Z,83.40
2022-12-25T20:52:47.288Z,83.43
2022-12-25T20:55:15.014Z,83.13
2022-12-25T20:57:43.574Z,82.81
2022-12-25T21:00:12.075Z,82.75
2022-12-25T21:02:39.830Z,82.55
2022-12-25T21:05:08.207Z,82.52
2022-12-25T21:07:35.905Z,82.25
2022-12-25T21:10:05.711Z,82.19
2022-12-25T21:12:33.455Z,82.09
2022-12-25T21:15:01.384Z,81.87
2022-12-25T21:17:29.029Z,81.72
2022-12-25T21:19:56.613Z,82.00
2022-12-25T21:22:24.243Z,82.04
2022-12-25T21:24:53.286Z,81.82
2022-12-25T21:27:22.223Z,81.80
2022-12-25T21:29:49.825Z,81.98
2022-12-25T21:32:35.051Z,81.80
2022-12-25T21:35:02.647Z,81.82
2022-12-25T21:37:32.024Z,82.00
2022-12-25T21:40:00.195Z,82.20
2022-12-25T21:42:29.095Z,82.31
2022-12-25T21:44:56.687Z,83.09
2022-12-25T21:47:24.256Z,83.77
2022-12-25T21:50:09.313Z,84.07
2022-12-25T21:52:36.947Z,84.42
2022-12-25T21:55:04.756Z,84.59
2022-12-25T21:57:33.655Z,84.90
2022-12-25T22:00:01.277Z,86.00
2022-12-25T22:02:29.039Z,87.46
2022-12-25T22:04:56.738Z,86.93
2022-12-25T22:07:23.364Z,86.71
2022-12-25T22:09:51.724Z,86.80
2022-12-25T22:12:37.761Z,86.63
2022-12-25T22:15:09.385Z,86.58
2022-12-25T22:17:55.768Z,86.28
2022-12-25T22:20:24.693Z,86.33
2022-12-25T22:22:52.312Z,86.20
2022-12-25T22:25:20.282Z,86.00
2022-12-25T22:27:48.698Z,86.27
2022-12-25T22:30:18.924Z,86.22
2022-12-25T22:32:47.327Z,86.63
2022-12-25T22:35:16.541Z,86.79
2022-12-25T22:37:44.678Z,86.82
2022-12-25T22:40:13.504Z,87.07
2022-12-25T22:42:41.194Z,87.51
2022-12-25T22:45:09.423Z,87.93
2022-12-25T22:47:38.551Z,88.45
2022-12-25T22:50:07.142Z,89.13
2022-12-25T22:52:34.802Z,89.76
2022-12-25T22:55:02.470Z,90.08
2022-12-25T22:57:30.161Z,90.58
2022-12-25T22:59:57.758Z,90.51
2022-12-25T23:02:25.803Z,90.44
2022-12-25T23:04:55.269Z,90.25
2022-12-25T23:07:22.881Z,89.19
2022-12-25T23:09:50.628Z,88.38
2022-12-25T23:12:35.639Z,88.01
2022-12-25T23:15:03.236Z,87.74
2022-12-25T23:17:48.183Z,87.88
2022-12-25T23:20:34.668Z,87.27
2022-12-25T23:23:20.171Z,86.83
2022-12-25T23:26:05.369Z,86.68
2022-12-25T23:28:50.579Z,86.48
2022-12-25T23:31:18.639Z,86.44
2022-12-25T23:33:46.308Z,86.61
2022-12-25T23:36:15.273Z,86.73
2022-12-25T23:38:42.841Z,86.84
2022-12-25T23:41:10.474Z,86.96
2022-12-25T23:43:38.083Z,87.20
2022-12-25T23:46:05.757Z,87.16
2022-12-25T23:48:33.382Z,87.15
2022-12-25T23:51:02.936Z,87.11
2022-12-25T23:53:31.989Z,86.98
2022-12-25T23:56:00.322Z,87.08
2022-12-25T23:58:28.936Z,86.81
